sensor_id;sensor_type;location;lat;lon;timestamp;pressure;altitude;pressure_sealevel;temperature
68911;BMP180;55953;51.650;-0.522;2022-07-23T00:00:46;101019.80;;;17.10
68911;BMP180;55953;51.650;-0.522;2022-07-23T00:03:14;101014.40;;;17.00
68911;BMP180;55953;51.650;-0.522;2022-07-23T00:05:42;101017.40;;;17.00
68911;BMP180;55953;51.650;-0.522;2022-07-23T00:08:11;101016.40;;;17.00
68911;BMP180;55953;51.650;-0.522;2022-07-23T00:10:41;101014.40;;;16.90
68911;BMP180;55953;51.650;-0.522;2022-07-23T00:13:09;101009.40;;;16.90
68911;BMP180;55953;51.650;-0.522;2022-07-23T00:15:37;101011.80;;;16.80
68911;BMP180;55953;51.650;-0.522;2022-07-23T00:18:05;101012.00;;;16.80
68911;BMP180;55953;51.650;-0.522;2022-07-23T00:20:33;101013.40;;;16.80
68911;BMP180;55953;51.650;-0.522;2022-07-23T00:23:01;101009.80;;;16.80
68911;BMP180;55953;51.650;-0.522;2022-07-23T00:25:29;101010.20;;;16.74
68911;BMP180;55953;51.650;-0.522;2022-07-23T00:28:00;101008.20;;;16.60
68911;BMP180;55953;51.650;-0.522;2022-07-23T00:30:30;101012.20;;;16.70
68911;BMP180;55953;51.650;-0.522;2022-07-23T00:33:02;101016.20;;;16.62
68911;BMP180;55953;51.650;-0.522;2022-07-23T00:35:36;101012.00;;;16.70
68911;BMP180;55953;51.650;-0.522;2022-07-23T00:38:05;101010.00;;;16.60
68911;BMP180;55953;51.650;-0.522;2022-07-23T00:40:33;101010.20;;;16.60
68911;BMP180;55953;51.650;-0.522;2022-07-23T00:43:02;101007.40;;;16.50
68911;BMP180;55953;51.650;-0.522;2022-07-23T00:45:31;101010.20;;;16.48
68911;BMP180;55953;51.650;-0.522;2022-07-23T00:48:00;101010.60;;;16.46
68911;BMP180;55953;51.650;-0.522;2022-07-23T00:50:29;101007.20;;;16.50
68911;BMP180;55953;51.650;-0.522;2022-07-23T00:52:57;101011.40;;;16.40
68911;BMP180;55953;51.650;-0.522;2022-07-23T00:55:26;101004.40;;;16.50
68911;BMP180;55953;51.650;-0.522;2022-07-23T00:57:55;101002.40;;;16.50
68911;BMP180;55953;51.650;-0.522;2022-07-23T01:00:23;101003.60;;;16.70
68911;BMP180;55953;51.650;-0.522;2022-07-23T01:02:51;100998.20;;;16.70
68911;BMP180;55953;51.650;-0.522;2022-07-23T01:05:19;100998.40;;;16.64
68911;BMP180;55953;51.650;-0.522;2022-07-23T01:07:51;100996.40;;;16.66
68911;BMP180;55953;51.650;-0.522;2022-07-23T01:10:24;100992.20;;;16.70
68911;BMP180;55953;51.650;-0.522;2022-07-23T01:13:08;100993.60;;;16.70
68911;BMP180;55953;51.650;-0.522;2022-07-23T01:15:38;100995.00;;;16.70
68911;BMP180;55953;51.650;-0.522;2022-07-23T01:18:07;100996.80;;;16.70
68911;BMP180;55953;51.650;-0.522;2022-07-23T01:20:37;100996.40;;;16.90
68911;BMP180;55953;51.650;-0.522;2022-07-23T01:23:05;100995.00;;;16.90
68911;BMP180;55953;51.650;-0.522;2022-07-23T01:25:34;100993.20;;;16.88
68911;BMP180;55953;51.650;-0.522;2022-07-23T01:28:04;100995.00;;;16.82
68911;BMP180;55953;51.650;-0.522;2022-07-23T01:30:32;100986.40;;;16.82
68911;BMP180;55953;51.650;-0.522;2022-07-23T01:33:01;100991.80;;;16.80
68911;BMP180;55953;51.650;-0.522;2022-07-23T01:35:29;100990.80;;;16.80
68911;BMP180;55953;51.650;-0.522;2022-07-23T01:38:01;100990.20;;;16.60
68911;BMP180;55953;51.650;-0.522;2022-07-23T01:40:29;100990.60;;;16.70
68911;BMP180;55953;51.650;-0.522;2022-07-23T01:42:57;100986.40;;;16.60
68911;BMP180;55953;51.650;-0.522;2022-07-23T01:45:27;100990.80;;;16.60
68911;BMP180;55953;51.650;-0.522;2022-07-23T01:47:55;100989.40;;;16.70
68911;BMP180;55953;51.650;-0.522;2022-07-23T01:50:23;100986.20;;;16.74
68911;BMP180;55953;51.650;-0.522;2022-07-23T01:53:17;100985.40;;;16.70
68911;BMP180;55953;51.650;-0.522;2022-07-23T01:55:46;100982.20;;;16.70
68911;BMP180;55953;51.650;-0.522;2022-07-23T01:58:14;100979.20;;;16.72
68911;BMP180;55953;51.650;-0.522;2022-07-23T02:00:41;100978.20;;;16.70
68911;BMP180;55953;51.650;-0.522;2022-07-23T02:03:09;100975.80;;;16.70
68911;BMP180;55953;51.650;-0.522;2022-07-23T02:05:37;100979.00;;;16.60
68911;BMP180;55953;51.650;-0.522;2022-07-23T02:08:05;100979.40;;;16.64
68911;BMP180;55953;51.650;-0.522;2022-07-23T02:10:35;100974.40;;;16.70
68911;BMP180;55953;51.650;-0.522;2022-07-23T02:13:04;100977.40;;;16.70
68911;BMP180;55953;51.650;-0.522;2022-07-23T02:15:32;100978.60;;;16.70
68911;BMP180;55953;51.650;-0.522;2022-07-23T02:18:00;100984.00;;;16.66
68911;BMP180;55953;51.650;-0.522;2022-07-23T02:20:28;100983.20;;;16.60
68911;BMP180;55953;51.650;-0.522;2022-07-23T02:22:56;100978.60;;;16.60
68911;BMP180;55953;51.650;-0.522;2022-07-23T02:25:24;100978.60;;;16.80
68911;BMP180;55953;51.650;-0.522;2022-07-23T02:27:54;100983.80;;;17.00
68911;BMP180;55953;51.650;-0.522;2022-07-23T02:30:22;100983.40;;;17.00
68911;BMP180;55953;51.650;-0.522;2022-07-23T02:32:50;100978.40;;;17.10
68911;BMP180;55953;51.650;-0.522;2022-07-23T02:35:18;100974.40;;;17.20
68911;BMP180;55953;51.650;-0.522;2022-07-23T02:37:46;100974.60;;;17.24
68911;BMP180;55953;51.650;-0.522;2022-07-23T02:40:17;100978.80;;;17.30
68911;BMP180;55953;51.650;-0.522;2022-07-23T02:42:46;100979.00;;;17.30
68911;BMP180;55953;51.650;-0.522;2022-07-23T02:45:13;100985.40;;;17.40
68911;BMP180;55953;51.650;-0.522;2022-07-23T02:47:41;100980.00;;;17.40
68911;BMP180;55953;51.650;-0.522;2022-07-23T02:50:09;100982.40;;;17.40
68911;BMP180;55953;51.650;-0.522;2022-07-23T02:52:39;100982.00;;;17.40
68911;BMP180;55953;51.650;-0.522;2022-07-23T02:55:08;100980.40;;;17.40
68911;BMP180;55953;51.650;-0.522;2022-07-23T02:57:36;100981.60;;;17.50
68911;BMP180;55953;51.650;-0.522;2022-07-23T03:00:05;100985.40;;;17.60
68911;BMP180;55953;51.650;-0.522;2022-07-23T03:02:34;100989.20;;;17.60
68911;BMP180;55953;51.650;-0.522;2022-07-23T03:05:03;100989.00;;;17.70
68911;BMP180;55953;51.650;-0.522;2022-07-23T03:07:31;100986.40;;;17.70
68911;BMP180;55953;51.650;-0.522;2022-07-23T03:09:58;100980.60;;;17.60
68911;BMP180;55953;51.650;-0.522;2022-07-23T03:12:26;100978.80;;;17.70
68911;BMP180;55953;51.650;-0.522;2022-07-23T03:14:54;100975.80;;;17.60
68911;BMP180;55953;51.650;-0.522;2022-07-23T03:17:22;100976.80;;;17.60
68911;BMP180;55953;51.650;-0.522;2022-07-23T03:19:50;100976.80;;;17.60
68911;BMP180;55953;51.650;-0.522;2022-07-23T03:22:18;100972.60;;;17.58
68911;BMP180;55953;51.650;-0.522;2022-07-23T03:24:46;100974.80;;;17.46
68911;BMP180;55953;51.650;-0.522;2022-07-23T03:27:27;100972.40;;;17.44
68911;BMP180;55953;51.650;-0.522;2022-07-23T03:29:58;100967.00;;;17.30
68911;BMP180;55953;51.650;-0.522;2022-07-23T03:32:27;100960.80;;;17.30
68911;BMP180;55953;51.650;-0.522;2022-07-23T03:34:55;100966.20;;;17.20
68911;BMP180;55953;51.650;-0.522;2022-07-23T03:37:24;100971.20;;;17.10
68911;BMP180;55953;51.650;-0.522;2022-07-23T03:39:52;100968.00;;;17.00
68911;BMP180;55953;51.650;-0.522;2022-07-23T03:42:20;100970.20;;;17.00
68911;BMP180;55953;51.650;-0.522;2022-07-23T03:44:48;100970.60;;;16.90
68911;BMP180;55953;51.650;-0.522;2022-07-23T03:47:16;100966.60;;;16.90
68911;BMP180;55953;51.650;-0.522;2022-07-23T03:49:44;100965.60;;;16.80
68911;BMP180;55953;51.650;-0.522;2022-07-23T03:52:12;100970.80;;;16.70
68911;BMP180;55953;51.650;-0.522;2022-07-23T03:54:40;100974.40;;;16.70
68911;BMP180;55953;51.650;-0.522;2022-07-23T03:57:08;100970.80;;;16.60
68911;BMP180;55953;51.650;-0.522;2022-07-23T03:59:36;100969.80;;;16.60
68911;BMP180;55953;51.650;-0.522;2022-07-23T04:02:04;100968.00;;;16.52
68911;BMP180;55953;51.650;-0.522;2022-07-23T04:04:32;100969.20;;;16.50
68911;BMP180;55953;51.650;-0.522;2022-07-23T04:07:00;100968.00;;;16.50
68911;BMP180;55953;51.650;-0.522;2022-07-23T04:09:29;100971.60;;;16.40
68911;BMP180;55953;51.650;-0.522;2022-07-23T04:11:57;100970.20;;;16.40
68911;BMP180;55953;51.650;-0.522;2022-07-23T04:14:25;100962.20;;;16.40
68911;BMP180;55953;51.650;-0.522;2022-07-23T04:16:53;100963.80;;;16.40
68911;BMP180;55953;51.650;-0.522;2022-07-23T04:19:21;100970.00;;;16.30
68911;BMP180;55953;51.650;-0.522;2022-07-23T04:22:01;100970.40;;;16.30
68911;BMP180;55953;51.650;-0.522;2022-07-23T04:24:29;100964.80;;;16.26
68911;BMP180;55953;51.650;-0.522;2022-07-23T04:26:58;100969.00;;;16.20
68911;BMP180;55953;51.650;-0.522;2022-07-23T04:29:26;100966.60;;;16.30
68911;BMP180;55953;51.650;-0.522;2022-07-23T04:31:54;100966.00;;;16.30
68911;BMP180;55953;51.650;-0.522;2022-07-23T04:34:22;100967.40;;;16.30
68911;BMP180;55953;51.650;-0.522;2022-07-23T04:36:50;100964.00;;;16.30
68911;BMP180;55953;51.650;-0.522;2022-07-23T04:39:18;100964.80;;;16.30
68911;BMP180;55953;51.650;-0.522;2022-07-23T04:41:46;100968.60;;;16.24
68911;BMP180;55953;51.650;-0.522;2022-07-23T04:44:14;100965.80;;;16.20
68911;BMP180;55953;51.650;-0.522;2022-07-23T04:46:42;100965.40;;;16.20
68911;BMP180;55953;51.650;-0.522;2022-07-23T04:49:10;100963.80;;;16.20
68911;BMP180;55953;51.650;-0.522;2022-07-23T04:51:38;100961.00;;;16.20
68911;BMP180;55953;51.650;-0.522;2022-07-23T04:54:06;100962.40;;;16.20
68911;BMP180;55953;51.650;-0.522;2022-07-23T04:56:34;100963.00;;;16.30
68911;BMP180;55953;51.650;-0.522;2022-07-23T04:59:03;100961.20;;;16.34
68911;BMP180;55953;51.650;-0.522;2022-07-23T05:01:31;100975.40;;;16.30
68911;BMP180;55953;51.650;-0.522;2022-07-23T05:03:59;100979.00;;;16.30
68911;BMP180;55953;51.650;-0.522;2022-07-23T05:06:30;100983.40;;;16.30
68911;BMP180;55953;51.650;-0.522;2022-07-23T05:08:58;100980.80;;;16.30
68911;BMP180;55953;51.650;-0.522;2022-07-23T05:11:27;100983.80;;;16.28
68911;BMP180;55953;51.650;-0.522;2022-07-23T05:13:55;100990.00;;;16.20
68911;BMP180;55953;51.650;-0.522;2022-07-23T05:16:23;100992.40;;;16.20
68911;BMP180;55953;51.650;-0.522;2022-07-23T05:18:51;100990.40;;;16.20
68911;BMP180;55953;51.650;-0.522;2022-07-23T05:21:19;100991.00;;;16.20
68911;BMP180;55953;51.650;-0.522;2022-07-23T05:23:47;100988.80;;;16.24
68911;BMP180;55953;51.650;-0.522;2022-07-23T05:26:15;100980.80;;;16.30
68911;BMP180;55953;51.650;-0.522;2022-07-23T05:28:43;100984.40;;;16.30
68911;BMP180;55953;51.650;-0.522;2022-07-23T05:31:17;100983.40;;;16.30
68911;BMP180;55953;51.650;-0.522;2022-07-23T05:33:47;100981.80;;;16.30
68911;BMP180;55953;51.650;-0.522;2022-07-23T05:36:14;100978.00;;;16.32
68911;BMP180;55953;51.650;-0.522;2022-07-23T05:38:57;100980.00;;;16.40
68911;BMP180;55953;51.650;-0.522;2022-07-23T05:41:26;100981.80;;;16.40
68911;BMP180;55953;51.650;-0.522;2022-07-23T05:43:54;100985.20;;;16.40
68911;BMP180;55953;51.650;-0.522;2022-07-23T05:46:22;100983.20;;;16.40
68911;BMP180;55953;51.650;-0.522;2022-07-23T05:48:52;100980.60;;;16.40
68911;BMP180;55953;51.650;-0.522;2022-07-23T05:51:37;100981.60;;;16.42
68911;BMP180;55953;51.650;-0.522;2022-07-23T05:54:05;100982.80;;;16.50
68911;BMP180;55953;51.650;-0.522;2022-07-23T05:56:37;100986.00;;;16.60
68911;BMP180;55953;51.650;-0.522;2022-07-23T05:59:05;100984.80;;;16.70
68911;BMP180;55953;51.650;-0.522;2022-07-23T06:01:34;100983.00;;;16.80
68911;BMP180;55953;51.650;-0.522;2022-07-23T06:04:10;100981.80;;;17.06
68911;BMP180;55953;51.650;-0.522;2022-07-23T06:06:42;100984.80;;;17.20
68911;BMP180;55953;51.650;-0.522;2022-07-23T06:09:10;100987.60;;;17.30
68911;BMP180;55953;51.650;-0.522;2022-07-23T06:11:41;100991.00;;;17.50
68911;BMP180;55953;51.650;-0.522;2022-07-23T06:14:09;100989.00;;;17.50
68911;BMP180;55953;51.650;-0.522;2022-07-23T06:16:48;100990.40;;;17.62
68911;BMP180;55953;51.650;-0.522;2022-07-23T06:19:16;100988.60;;;17.70
68911;BMP180;55953;51.650;-0.522;2022-07-23T06:21:44;100990.00;;;17.74
68911;BMP180;55953;51.650;-0.522;2022-07-23T06:24:15;100990.00;;;17.80
68911;BMP180;55953;51.650;-0.522;2022-07-23T06:26:43;100993.00;;;17.80
68911;BMP180;55953;51.650;-0.522;2022-07-23T06:29:11;100987.20;;;17.80
68911;BMP180;55953;51.650;-0.522;2022-07-23T06:31:39;100991.60;;;17.86
68911;BMP180;55953;51.650;-0.522;2022-07-23T06:34:07;100996.00;;;17.90
68911;BMP180;55953;51.650;-0.522;2022-07-23T06:36:35;100994.40;;;17.90
68911;BMP180;55953;51.650;-0.522;2022-07-23T06:39:06;100990.00;;;18.00
68911;BMP180;55953;51.650;-0.522;2022-07-23T06:41:35;100992.20;;;18.10
68911;BMP180;55953;51.650;-0.522;2022-07-23T06:44:03;100991.40;;;18.20
68911;BMP180;55953;51.650;-0.522;2022-07-23T06:46:32;100988.40;;;18.30
68911;BMP180;55953;51.650;-0.522;2022-07-23T06:49:01;100993.80;;;18.32
68911;BMP180;55953;51.650;-0.522;2022-07-23T06:51:32;100998.80;;;18.40
68911;BMP180;55953;51.650;-0.522;2022-07-23T06:54:02;101006.40;;;18.50
68911;BMP180;55953;51.650;-0.522;2022-07-23T06:56:30;101002.00;;;18.70
68911;BMP180;55953;51.650;-0.522;2022-07-23T06:58:58;100994.80;;;18.70
68911;BMP180;55953;51.650;-0.522;2022-07-23T07:01:26;100997.60;;;18.80
68911;BMP180;55953;51.650;-0.522;2022-07-23T07:03:54;100992.00;;;18.90
68911;BMP180;55953;51.650;-0.522;2022-07-23T07:06:22;100993.60;;;19.00
68911;BMP180;55953;51.650;-0.522;2022-07-23T07:08:51;100985.60;;;19.06
68911;BMP180;55953;51.650;-0.522;2022-07-23T07:11:19;100979.60;;;19.02
68911;BMP180;55953;51.650;-0.522;2022-07-23T07:13:47;100984.20;;;19.00
68911;BMP180;55953;51.650;-0.522;2022-07-23T07:16:15;100986.40;;;19.10
68911;BMP180;55953;51.650;-0.522;2022-07-23T07:18:43;100994.80;;;19.00
68911;BMP180;55953;51.650;-0.522;2022-07-23T07:21:11;100996.80;;;19.00
68911;BMP180;55953;51.650;-0.522;2022-07-23T07:23:39;101001.00;;;18.98
68911;BMP180;55953;51.650;-0.522;2022-07-23T07:26:07;101002.20;;;18.98
68911;BMP180;55953;51.650;-0.522;2022-07-23T07:28:35;101002.20;;;19.00
68911;BMP180;55953;51.650;-0.522;2022-07-23T07:31:03;101000.80;;;19.00
68911;BMP180;55953;51.650;-0.522;2022-07-23T07:33:31;100999.60;;;19.00
68911;BMP180;55953;51.650;-0.522;2022-07-23T07:35:59;101002.40;;;19.00
68911;BMP180;55953;51.650;-0.522;2022-07-23T07:38:28;101003.80;;;19.10
68911;BMP180;55953;51.650;-0.522;2022-07-23T07:40:56;100999.40;;;19.24
68911;BMP180;55953;51.650;-0.522;2022-07-23T07:43:23;101001.20;;;19.40
68911;BMP180;55953;51.650;-0.522;2022-07-23T07:45:52;100996.80;;;19.50
68911;BMP180;55953;51.650;-0.522;2022-07-23T07:48:20;101003.80;;;19.60
68911;BMP180;55953;51.650;-0.522;2022-07-23T07:50:48;101002.00;;;19.66
68911;BMP180;55953;51.650;-0.522;2022-07-23T07:53:16;100998.60;;;19.74
68911;BMP180;55953;51.650;-0.522;2022-07-23T07:55:44;100995.20;;;19.90
68911;BMP180;55953;51.650;-0.522;2022-07-23T07:58:18;100998.80;;;20.00
68911;BMP180;55953;51.650;-0.522;2022-07-23T08:00:46;101000.20;;;20.12
68911;BMP180;55953;51.650;-0.522;2022-07-23T08:03:14;100995.40;;;20.24
68911;BMP180;55953;51.650;-0.522;2022-07-23T08:05:42;101000.40;;;20.30
68911;BMP180;55953;51.650;-0.522;2022-07-23T08:08:10;101002.80;;;20.50
68911;BMP180;55953;51.650;-0.522;2022-07-23T08:10:42;101005.40;;;20.64
68911;BMP180;55953;51.650;-0.522;2022-07-23T08:13:15;101001.20;;;20.88
68911;BMP180;55953;51.650;-0.522;2022-07-23T08:15:44;100997.00;;;21.28
68911;BMP180;55953;51.650;-0.522;2022-07-23T08:18:13;100997.20;;;21.60
68911;BMP180;55953;51.650;-0.522;2022-07-23T08:20:41;100990.20;;;21.60
68911;BMP180;55953;51.650;-0.522;2022-07-23T08:23:09;100993.20;;;21.60
68911;BMP180;55953;51.650;-0.522;2022-07-23T08:25:40;100995.80;;;21.52
68911;BMP180;55953;51.650;-0.522;2022-07-23T08:28:12;100993.60;;;21.40
68911;BMP180;55953;51.650;-0.522;2022-07-23T08:30:43;100999.20;;;21.42
68911;BMP180;55953;51.650;-0.522;2022-07-23T08:33:17;100999.80;;;21.30
68911;BMP180;55953;51.650;-0.522;2022-07-23T08:35:59;100994.00;;;21.30
68911;BMP180;55953;51.650;-0.522;2022-07-23T08:38:27;100992.20;;;21.34
68911;BMP180;55953;51.650;-0.522;2022-07-23T08:40:56;101002.40;;;21.40
68911;BMP180;55953;51.650;-0.522;2022-07-23T08:43:32;101004.20;;;21.50
68911;BMP180;55953;51.650;-0.522;2022-07-23T08:46:03;101000.40;;;21.40
68911;BMP180;55953;51.650;-0.522;2022-07-23T08:48:34;100995.40;;;21.30
68911;BMP180;55953;51.650;-0.522;2022-07-23T08:51:05;100994.00;;;21.46
68911;BMP180;55953;51.650;-0.522;2022-07-23T08:53:35;100998.20;;;21.50
68911;BMP180;55953;51.650;-0.522;2022-07-23T08:56:05;100996.20;;;21.68
68911;BMP180;55953;51.650;-0.522;2022-07-23T08:58:37;100995.40;;;21.86
68911;BMP180;55953;51.650;-0.522;2022-07-23T09:01:05;100997.00;;;22.00
68911;BMP180;55953;51.650;-0.522;2022-07-23T09:03:36;100985.60;;;22.10
68911;BMP180;55953;51.650;-0.522;2022-07-23T09:06:04;100985.60;;;22.10
68911;BMP180;55953;51.650;-0.522;2022-07-23T09:08:43;100986.00;;;22.00
68911;BMP180;55953;51.650;-0.522;2022-07-23T09:11:16;100985.00;;;22.00
68911;BMP180;55953;51.650;-0.522;2022-07-23T09:13:52;100982.00;;;22.00
68911;BMP180;55953;51.650;-0.522;2022-07-23T09:16:31;100985.80;;;22.00
68911;BMP180;55953;51.650;-0.522;2022-07-23T09:19:05;100986.60;;;22.00
68911;BMP180;55953;51.650;-0.522;2022-07-23T09:21:35;100985.60;;;22.00
68911;BMP180;55953;51.650;-0.522;2022-07-23T09:24:09;100989.60;;;22.10
68911;BMP180;55953;51.650;-0.522;2022-07-23T09:26:39;100989.80;;;22.12
68911;BMP180;55953;51.650;-0.522;2022-07-23T09:29:15;100987.80;;;22.30
68911;BMP180;55953;51.650;-0.522;2022-07-23T09:31:56;100986.40;;;22.40
68911;BMP180;55953;51.650;-0.522;2022-07-23T09:34:30;100992.60;;;22.40
68911;BMP180;55953;51.650;-0.522;2022-07-23T09:37:17;100992.20;;;22.40
68911;BMP180;55953;51.650;-0.522;2022-07-23T09:39:47;100992.60;;;22.40
68911;BMP180;55953;51.650;-0.522;2022-07-23T09:42:25;100996.20;;;22.50
68911;BMP180;55953;51.650;-0.522;2022-07-23T09:44:56;100994.60;;;22.50
68911;BMP180;55953;51.650;-0.522;2022-07-23T09:47:29;100993.80;;;22.50
68911;BMP180;55953;51.650;-0.522;2022-07-23T09:50:03;100992.80;;;22.60
68911;BMP180;55953;51.650;-0.522;2022-07-23T09:52:43;100986.40;;;22.60
68911;BMP180;55953;51.650;-0.522;2022-07-23T09:55:12;100989.80;;;22.70
68911;BMP180;55953;51.650;-0.522;2022-07-23T09:57:41;100984.40;;;22.80
68911;BMP180;55953;51.650;-0.522;2022-07-23T10:00:12;100982.60;;;22.90
68911;BMP180;55953;51.650;-0.522;2022-07-23T10:02:40;100979.60;;;22.94
68911;BMP180;55953;51.650;-0.522;2022-07-23T10:05:29;100981.60;;;23.00
68911;BMP180;55953;51.650;-0.522;2022-07-23T10:08:19;100985.80;;;23.00
68911;BMP180;55953;51.650;-0.522;2022-07-23T10:10:50;100995.60;;;23.00
68911;BMP180;55953;51.650;-0.522;2022-07-23T10:13:21;100996.60;;;23.00
68911;BMP180;55953;51.650;-0.522;2022-07-23T10:16:08;100992.00;;;23.00
68911;BMP180;55953;51.650;-0.522;2022-07-23T10:18:36;100994.40;;;23.00
68911;BMP180;55953;51.650;-0.522;2022-07-23T10:21:10;100989.80;;;23.10
68911;BMP180;55953;51.650;-0.522;2022-07-23T10:24:04;100989.40;;;23.20
68911;BMP180;55953;51.650;-0.522;2022-07-23T10:27:02;100982.20;;;23.46
68911;BMP180;55953;51.650;-0.522;2022-07-23T10:29:51;100980.00;;;23.70
68911;BMP180;55953;51.650;-0.522;2022-07-23T10:36:01;100984.80;;;24.10
68911;BMP180;55953;51.650;-0.522;2022-07-23T10:41:39;100983.60;;;24.10
68911;BMP180;55953;51.650;-0.522;2022-07-23T10:47:07;100979.40;;;24.40
68911;BMP180;55953;51.650;-0.522;2022-07-23T10:49:42;100971.20;;;24.70
68911;BMP180;55953;51.650;-0.522;2022-07-23T10:57:28;100971.20;;;24.50
68911;BMP180;55953;51.650;-0.522;2022-07-23T11:02:31;100970.40;;;24.40
68911;BMP180;55953;51.650;-0.522;2022-07-23T11:05:05;100978.00;;;24.48
68911;BMP180;55953;51.650;-0.522;2022-07-23T11:07:35;100973.60;;;24.50
68911;BMP180;55953;51.650;-0.522;2022-07-23T11:10:04;100980.40;;;24.62
68911;BMP180;55953;51.650;-0.522;2022-07-23T11:12:32;100979.20;;;24.70
68911;BMP180;55953;51.650;-0.522;2022-07-23T11:15:14;100971.60;;;24.60
68911;BMP180;55953;51.650;-0.522;2022-07-23T11:22:48;100958.00;;;24.70
68911;BMP180;55953;51.650;-0.522;2022-07-23T11:27:51;100957.80;;;24.70
68911;BMP180;55953;51.650;-0.522;2022-07-23T11:35:43;100962.80;;;24.90
68911;BMP180;55953;51.650;-0.522;2022-07-23T11:38:17;100954.60;;;25.00
68911;BMP180;55953;51.650;-0.522;2022-07-23T11:40:52;100952.60;;;25.00
68911;BMP180;55953;51.650;-0.522;2022-07-23T11:43:22;100952.80;;;24.88
68911;BMP180;55953;51.650;-0.522;2022-07-23T11:45:59;100953.60;;;24.92
68911;BMP180;55953;51.650;-0.522;2022-07-23T11:48:30;100945.40;;;25.00
68911;BMP180;55953;51.650;-0.522;2022-07-23T11:51:03;100951.40;;;25.10
68911;BMP180;55953;51.650;-0.522;2022-07-23T11:53:34;100947.20;;;25.32
68911;BMP180;55953;51.650;-0.522;2022-07-23T11:56:08;100946.00;;;25.50
68911;BMP180;55953;51.650;-0.522;2022-07-23T11:58:38;100932.80;;;25.60
68911;BMP180;55953;51.650;-0.522;2022-07-23T12:01:07;100937.20;;;25.80
68911;BMP180;55953;51.650;-0.522;2022-07-23T12:03:50;100944.00;;;26.00
68911;BMP180;55953;51.650;-0.522;2022-07-23T12:06:19;100941.60;;;26.10
68911;BMP180;55953;51.650;-0.522;2022-07-23T12:08:47;100939.20;;;26.32
68911;BMP180;55953;51.650;-0.522;2022-07-23T12:11:15;100942.80;;;26.60
68911;BMP180;55953;51.650;-0.522;2022-07-23T12:13:43;100940.20;;;26.80
68911;BMP180;55953;51.650;-0.522;2022-07-23T12:16:11;100941.80;;;26.90
68911;BMP180;55953;51.650;-0.522;2022-07-23T12:18:39;100951.60;;;26.74
68911;BMP180;55953;51.650;-0.522;2022-07-23T12:21:07;100951.60;;;26.70
68911;BMP180;55953;51.650;-0.522;2022-07-23T12:23:36;100940.00;;;26.50
68911;BMP180;55953;51.650;-0.522;2022-07-23T12:26:06;100940.20;;;26.50
68911;BMP180;55953;51.650;-0.522;2022-07-23T12:28:36;100942.40;;;26.60
68911;BMP180;55953;51.650;-0.522;2022-07-23T12:31:05;100942.40;;;26.60
68911;BMP180;55953;51.650;-0.522;2022-07-23T12:33:39;100940.00;;;26.64
68911;BMP180;55953;51.650;-0.522;2022-07-23T12:36:09;100933.80;;;26.90
68911;BMP180;55953;51.650;-0.522;2022-07-23T12:38:47;100941.00;;;27.00
68911;BMP180;55953;51.650;-0.522;2022-07-23T12:41:16;100931.20;;;27.06
68911;BMP180;55953;51.650;-0.522;2022-07-23T12:43:46;100929.60;;;27.20
68911;BMP180;55953;51.650;-0.522;2022-07-23T12:46:21;100932.80;;;27.00
68911;BMP180;55953;51.650;-0.522;2022-07-23T12:48:54;100931.00;;;27.08
68911;BMP180;55953;51.650;-0.522;2022-07-23T12:51:26;100920.20;;;27.20
68911;BMP180;55953;51.650;-0.522;2022-07-23T12:54:06;100918.60;;;27.30
68911;BMP180;55953;51.650;-0.522;2022-07-23T12:56:38;100921.00;;;27.32
68911;BMP180;55953;51.650;-0.522;2022-07-23T12:59:13;100915.00;;;27.50
68911;BMP180;55953;51.650;-0.522;2022-07-23T13:01:57;100916.00;;;27.54
68911;BMP180;55953;51.650;-0.522;2022-07-23T13:04:29;100905.00;;;27.60
68911;BMP180;55953;51.650;-0.522;2022-07-23T13:07:00;100902.20;;;27.70
68911;BMP180;55953;51.650;-0.522;2022-07-23T13:09:33;100907.40;;;27.80
68911;BMP180;55953;51.650;-0.522;2022-07-23T13:12:09;100904.20;;;27.42
68911;BMP180;55953;51.650;-0.522;2022-07-23T13:14:38;100897.80;;;27.30
68911;BMP180;55953;51.650;-0.522;2022-07-23T13:17:06;100893.80;;;27.20
68911;BMP180;55953;51.650;-0.522;2022-07-23T13:19:36;100897.40;;;27.10
68911;BMP180;55953;51.650;-0.522;2022-07-23T13:22:04;100899.40;;;27.20
68911;BMP180;55953;51.650;-0.522;2022-07-23T13:24:37;100895.00;;;27.38
68911;BMP180;55953;51.650;-0.522;2022-07-23T13:27:06;100899.40;;;27.40
68911;BMP180;55953;51.650;-0.522;2022-07-23T13:29:40;100901.00;;;27.40
68911;BMP180;55953;51.650;-0.522;2022-07-23T13:32:08;100901.20;;;27.40
68911;BMP180;55953;51.650;-0.522;2022-07-23T13:34:40;100902.60;;;27.50
68911;BMP180;55953;51.650;-0.522;2022-07-23T13:37:09;100896.00;;;27.40
68911;BMP180;55953;51.650;-0.522;2022-07-23T13:39:36;100899.60;;;27.30
68911;BMP180;55953;51.650;-0.522;2022-07-23T13:42:06;100897.60;;;27.30
68911;BMP180;55953;51.650;-0.522;2022-07-23T13:44:37;100899.00;;;27.42
68911;BMP180;55953;51.650;-0.522;2022-07-23T13:47:05;100896.80;;;27.60
68911;BMP180;55953;51.650;-0.522;2022-07-23T13:49:33;100898.00;;;27.60
68911;BMP180;55953;51.650;-0.522;2022-07-23T13:52:04;100893.40;;;27.60
68911;BMP180;55953;51.650;-0.522;2022-07-23T13:54:35;100893.00;;;27.64
68911;BMP180;55953;51.650;-0.522;2022-07-23T13:57:04;100894.00;;;27.58
68911;BMP180;55953;51.650;-0.522;2022-07-23T13:59:32;100890.40;;;27.40
68911;BMP180;55953;51.650;-0.522;2022-07-23T14:02:04;100888.40;;;27.30
68911;BMP180;55953;51.650;-0.522;2022-07-23T14:04:52;100890.80;;;27.12
68911;BMP180;55953;51.650;-0.522;2022-07-23T14:07:20;100899.20;;;27.00
68911;BMP180;55953;51.650;-0.522;2022-07-23T14:09:49;100898.00;;;26.88
68911;BMP180;55953;51.650;-0.522;2022-07-23T14:12:17;100902.80;;;26.80
68911;BMP180;55953;51.650;-0.522;2022-07-23T14:14:44;100902.40;;;26.68
68911;BMP180;55953;51.650;-0.522;2022-07-23T14:17:13;100904.80;;;26.58
68911;BMP180;55953;51.650;-0.522;2022-07-23T14:19:42;100905.80;;;26.50
68911;BMP180;55953;51.650;-0.522;2022-07-23T14:22:11;100900.60;;;26.50
68911;BMP180;55953;51.650;-0.522;2022-07-23T14:24:40;100896.80;;;26.50
68911;BMP180;55953;51.650;-0.522;2022-07-23T14:27:08;100894.60;;;26.60
68911;BMP180;55953;51.650;-0.522;2022-07-23T14:29:36;100906.60;;;26.70
68911;BMP180;55953;51.650;-0.522;2022-07-23T14:32:04;100900.80;;;26.70